sensor_id;sensor_type;location;lat;lon;timestamp;P1;durP1;ratioP1;P2;durP2;ratioP2
43248;SDS011;29216;51.248;6.808;2023-02-16T00:00:27;27.55;;;15.32;;
43248;SDS011;29216;51.248;6.808;2023-02-16T00:02:54;27.23;;;15.43;;
43248;SDS011;29216;51.248;6.808;2023-02-16T00:07:55;27.75;;;15.30;;
43248;SDS011;29216;51.248;6.808;2023-02-16T00:10:22;27.50;;;16.13;;
43248;SDS011;29216;51.248;6.808;2023-02-16T00:12:48;29.02;;;15.07;;
43248;SDS011;29216;51.248;6.808;2023-02-16T00:17:59;23.45;;;14.30;;
43248;SDS011;29216;51.248;6.808;2023-02-16T00:20:28;27.40;;;16.25;;
43248;SDS011;29216;51.248;6.808;2023-02-16T00:22:56;27.27;;;15.23;;
43248;SDS011;29216;51.248;6.808;2023-02-16T00:25:22;24.92;;;15.10;;
43248;SDS011;29216;51.248;6.808;2023-02-16T00:27:48;25.98;;;15.68;;
43248;SDS011;29216;51.248;6.808;2023-02-16T00:30:15;29.80;;;15.95;;
43248;SDS011;29216;51.248;6.808;2023-02-16T00:32:42;29.23;;;16.13;;
43248;SDS011;29216;51.248;6.808;2023-02-16T00:35:18;24.88;;;14.95;;
43248;SDS011;29216;51.248;6.808;2023-02-16T00:37:45;25.45;;;15.10;;
43248;SDS011;29216;51.248;6.808;2023-02-16T00:40:12;27.90;;;16.13;;
43248;SDS011;29216;51.248;6.808;2023-02-16T00:42:39;26.95;;;15.93;;
43248;SDS011;29216;51.248;6.808;2023-02-16T00:45:10;30.08;;;15.98;;
43248;SDS011;29216;51.248;6.808;2023-02-16T00:47:49;23.85;;;14.80;;
43248;SDS011;29216;51.248;6.808;2023-02-16T00:50:26;25.42;;;15.60;;
43248;SDS011;29216;51.248;6.808;2023-02-16T00:52:52;32.03;;;17.73;;
43248;SDS011;29216;51.248;6.808;2023-02-16T00:55:22;27.08;;;16.15;;
43248;SDS011;29216;51.248;6.808;2023-02-16T01:03:14;28.00;;;15.98;;
43248;SDS011;29216;51.248;6.808;2023-02-16T01:05:42;30.00;;;16.48;;
43248;SDS011;29216;51.248;6.808;2023-02-16T01:08:12;29.67;;;16.60;;
43248;SDS011;29216;51.248;6.808;2023-02-16T01:10:58;24.80;;;15.90;;
43248;SDS011;29216;51.248;6.808;2023-02-16T01:13:41;27.70;;;15.70;;
43248;SDS011;29216;51.248;6.808;2023-02-16T01:16:14;25.13;;;15.38;;
43248;SDS011;29216;51.248;6.808;2023-02-16T01:18:51;25.75;;;14.55;;
43248;SDS011;29216;51.248;6.808;2023-02-16T01:21:17;32.60;;;17.48;;
43248;SDS011;29216;51.248;6.808;2023-02-16T01:23:42;29.90;;;16.67;;
43248;SDS011;29216;51.248;6.808;2023-02-16T01:26:13;28.88;;;17.20;;
43248;SDS011;29216;51.248;6.808;2023-02-16T01:28:41;30.17;;;16.17;;
43248;SDS011;29216;51.248;6.808;2023-02-16T01:31:09;27.70;;;17.08;;
43248;SDS011;29216;51.248;6.808;2023-02-16T01:33:35;28.67;;;16.33;;
43248;SDS011;29216;51.248;6.808;2023-02-16T01:36:02;29.42;;;16.55;;
43248;SDS011;29216;51.248;6.808;2023-02-16T01:38:29;25.73;;;15.52;;
43248;SDS011;29216;51.248;6.808;2023-02-16T01:43:41;31.05;;;16.85;;
43248;SDS011;29216;51.248;6.808;2023-02-16T01:46:12;29.98;;;16.40;;
43248;SDS011;29216;51.248;6.808;2023-02-16T01:48:42;30.42;;;17.23;;
43248;SDS011;29216;51.248;6.808;2023-02-16T01:51:13;29.70;;;16.23;;
43248;SDS011;29216;51.248;6.808;2023-02-16T01:53:48;30.17;;;16.70;;
43248;SDS011;29216;51.248;6.808;2023-02-16T01:56:36;31.20;;;16.60;;
43248;SDS011;29216;51.248;6.808;2023-02-16T01:59:07;27.38;;;16.67;;
43248;SDS011;29216;51.248;6.808;2023-02-16T02:01:55;30.67;;;16.75;;
43248;SDS011;29216;51.248;6.808;2023-02-16T02:04:39;30.45;;;16.98;;
43248;SDS011;29216;51.248;6.808;2023-02-16T02:15:56;31.73;;;16.90;;
43248;SDS011;29216;51.248;6.808;2023-02-16T02:18:23;29.92;;;18.23;;
43248;SDS011;29216;51.248;6.808;2023-02-16T02:37:10;28.55;;;18.00;;
43248;SDS011;29216;51.248;6.808;2023-02-16T02:40:10;30.75;;;17.70;;
43248;SDS011;29216;51.248;6.808;2023-02-16T02:45:25;30.88;;;16.65;;
43248;SDS011;29216;51.248;6.808;2023-02-16T02:48:01;32.45;;;17.10;;
43248;SDS011;29216;51.248;6.808;2023-02-16T02:52:55;28.38;;;16.70;;
43248;SDS011;29216;51.248;6.808;2023-02-16T02:55:26;35.53;;;17.27;;
43248;SDS011;29216;51.248;6.808;2023-02-16T02:58:12;32.30;;;18.02;;
43248;SDS011;29216;51.248;6.808;2023-02-16T03:00:57;28.90;;;16.80;;
43248;SDS011;29216;51.248;6.808;2023-02-16T03:03:28;30.27;;;17.13;;
43248;SDS011;29216;51.248;6.808;2023-02-16T03:06:08;27.83;;;16.63;;
43248;SDS011;29216;51.248;6.808;2023-02-16T03:08:38;30.90;;;17.92;;
43248;SDS011;29216;51.248;6.808;2023-02-16T03:11:16;30.85;;;17.00;;
43248;SDS011;29216;51.248;6.808;2023-02-16T03:14:13;28.52;;;17.55;;
43248;SDS011;29216;51.248;6.808;2023-02-16T03:16:43;30.27;;;16.80;;
43248;SDS011;29216;51.248;6.808;2023-02-16T03:19:12;31.67;;;16.88;;
43248;SDS011;29216;51.248;6.808;2023-02-16T03:21:58;33.67;;;18.85;;
43248;SDS011;29216;51.248;6.808;2023-02-16T03:24:43;29.20;;;18.10;;
43248;SDS011;29216;51.248;6.808;2023-02-16T03:27:36;32.53;;;16.38;;
43248;SDS011;29216;51.248;6.808;2023-02-16T03:30:23;31.10;;;17.25;;
43248;SDS011;29216;51.248;6.808;2023-02-16T03:32:50;32.97;;;18.70;;
43248;SDS011;29216;51.248;6.808;2023-02-16T03:35:17;31.67;;;16.95;;
43248;SDS011;29216;51.248;6.808;2023-02-16T03:37:42;32.65;;;18.38;;
43248;SDS011;29216;51.248;6.808;2023-02-16T03:40:10;29.00;;;16.48;;
43248;SDS011;29216;51.248;6.808;2023-02-16T03:42:56;35.03;;;18.30;;
43248;SDS011;29216;51.248;6.808;2023-02-16T03:45:29;28.33;;;16.73;;
43248;SDS011;29216;51.248;6.808;2023-02-16T03:47:56;31.80;;;17.40;;
43248;SDS011;29216;51.248;6.808;2023-02-16T03:50:22;33.15;;;17.65;;
43248;SDS011;29216;51.248;6.808;2023-02-16T03:52:48;30.50;;;16.48;;
43248;SDS011;29216;51.248;6.808;2023-02-16T03:55:14;31.77;;;17.35;;
43248;SDS011;29216;51.248;6.808;2023-02-16T03:57:39;31.73;;;17.05;;
43248;SDS011;29216;51.248;6.808;2023-02-16T04:00:05;28.95;;;17.73;;
43248;SDS011;29216;51.248;6.808;2023-02-16T04:02:31;30.40;;;17.65;;
43248;SDS011;29216;51.248;6.808;2023-02-16T04:04:57;32.35;;;16.80;;
43248;SDS011;29216;51.248;6.808;2023-02-16T04:07:23;29.27;;;17.42;;
43248;SDS011;29216;51.248;6.808;2023-02-16T04:09:48;31.75;;;16.95;;
43248;SDS011;29216;51.248;6.808;2023-02-16T04:12:14;34.33;;;18.90;;
43248;SDS011;29216;51.248;6.808;2023-02-16T04:14:58;31.10;;;17.05;;
43248;SDS011;29216;51.248;6.808;2023-02-16T04:17:23;28.77;;;17.80;;
43248;SDS011;29216;51.248;6.808;2023-02-16T04:19:49;34.60;;;17.05;;
43248;SDS011;29216;51.248;6.808;2023-02-16T04:22:15;37.10;;;19.50;;
43248;SDS011;29216;51.248;6.808;2023-02-16T04:24:40;33.25;;;17.77;;
43248;SDS011;29216;51.248;6.808;2023-02-16T04:27:06;31.73;;;17.45;;
43248;SDS011;29216;51.248;6.808;2023-02-16T04:29:34;30.98;;;16.85;;
43248;SDS011;29216;51.248;6.808;2023-02-16T04:31:59;34.22;;;18.27;;
43248;SDS011;29216;51.248;6.808;2023-02-16T04:34:25;34.58;;;18.38;;
43248;SDS011;29216;51.248;6.808;2023-02-16T04:36:50;29.80;;;18.30;;
43248;SDS011;29216;51.248;6.808;2023-02-16T04:39:16;31.33;;;17.90;;
43248;SDS011;29216;51.248;6.808;2023-02-16T04:41:41;29.23;;;18.08;;
43248;SDS011;29216;51.248;6.808;2023-02-16T04:44:07;33.53;;;19.00;;
43248;SDS011;29216;51.248;6.808;2023-02-16T04:46:33;33.67;;;18.92;;
43248;SDS011;29216;51.248;6.808;2023-02-16T04:48:58;34.60;;;18.60;;
43248;SDS011;29216;51.248;6.808;2023-02-16T04:51:24;30.48;;;17.10;;
43248;SDS011;29216;51.248;6.808;2023-02-16T04:53:50;32.08;;;18.40;;
43248;SDS011;29216;51.248;6.808;2023-02-16T04:56:15;32.35;;;17.33;;
43248;SDS011;29216;51.248;6.808;2023-02-16T04:58:41;30.77;;;17.58;;
43248;SDS011;29216;51.248;6.808;2023-02-16T05:01:07;31.67;;;17.85;;
43248;SDS011;29216;51.248;6.808;2023-02-16T05:03:32;31.00;;;18.30;;
43248;SDS011;29216;51.248;6.808;2023-02-16T05:05:58;27.30;;;17.40;;
43248;SDS011;29216;51.248;6.808;2023-02-16T05:08:24;30.40;;;17.35;;
43248;SDS011;29216;51.248;6.808;2023-02-16T05:10:50;32.22;;;17.73;;
43248;SDS011;29216;51.248;6.808;2023-02-16T05:13:34;30.98;;;18.05;;
43248;SDS011;29216;51.248;6.808;2023-02-16T05:16:19;32.80;;;17.98;;
43248;SDS011;29216;51.248;6.808;2023-02-16T05:18:46;34.40;;;18.67;;
43248;SDS011;29216;51.248;6.808;2023-02-16T05:21:12;28.65;;;16.90;;
43248;SDS011;29216;51.248;6.808;2023-02-16T05:23:56;37.13;;;18.30;;
43248;SDS011;29216;51.248;6.808;2023-02-16T05:26:27;46.75;;;18.35;;
43248;SDS011;29216;51.248;6.808;2023-02-16T05:28:54;30.80;;;17.42;;
43248;SDS011;29216;51.248;6.808;2023-02-16T05:31:20;32.53;;;17.60;;
43248;SDS011;29216;51.248;6.808;2023-02-16T05:33:46;32.00;;;18.25;;
43248;SDS011;29216;51.248;6.808;2023-02-16T05:36:12;32.03;;;19.20;;
43248;SDS011;29216;51.248;6.808;2023-02-16T05:38:37;30.55;;;18.48;;
43248;SDS011;29216;51.248;6.808;2023-02-16T05:41:03;30.52;;;17.67;;
43248;SDS011;29216;51.248;6.808;2023-02-16T05:43:29;32.45;;;18.98;;
43248;SDS011;29216;51.248;6.808;2023-02-16T05:45:54;34.63;;;19.00;;
43248;SDS011;29216;51.248;6.808;2023-02-16T05:48:20;34.38;;;18.67;;
43248;SDS011;29216;51.248;6.808;2023-02-16T05:50:46;33.10;;;17.80;;
43248;SDS011;29216;51.248;6.808;2023-02-16T05:53:11;29.27;;;18.10;;
43248;SDS011;29216;51.248;6.808;2023-02-16T05:55:37;37.17;;;19.38;;
43248;SDS011;29216;51.248;6.808;2023-02-16T05:58:02;31.85;;;18.00;;
43248;SDS011;29216;51.248;6.808;2023-02-16T06:00:28;34.92;;;18.98;;
43248;SDS011;29216;51.248;6.808;2023-02-16T06:02:57;31.08;;;18.08;;
43248;SDS011;29216;51.248;6.808;2023-02-16T06:05:23;35.28;;;18.85;;
43248;SDS011;29216;51.248;6.808;2023-02-16T06:07:49;32.65;;;18.85;;
43248;SDS011;29216;51.248;6.808;2023-02-16T06:10:15;32.30;;;19.02;;
43248;SDS011;29216;51.248;6.808;2023-02-16T06:12:41;35.00;;;17.73;;
43248;SDS011;29216;51.248;6.808;2023-02-16T06:15:06;30.17;;;17.63;;
43248;SDS011;29216;51.248;6.808;2023-02-16T06:17:32;32.47;;;18.60;;
43248;SDS011;29216;51.248;6.808;2023-02-16T06:19:58;29.23;;;16.67;;
43248;SDS011;29216;51.248;6.808;2023-02-16T06:22:23;34.60;;;18.75;;
43248;SDS011;29216;51.248;6.808;2023-02-16T06:24:49;34.20;;;17.65;;
43248;SDS011;29216;51.248;6.808;2023-02-16T06:27:14;30.90;;;17.52;;
43248;SDS011;29216;51.248;6.808;2023-02-16T06:29:40;29.67;;;18.17;;
43248;SDS011;29216;51.248;6.808;2023-02-16T06:32:06;30.45;;;17.38;;
43248;SDS011;29216;51.248;6.808;2023-02-16T06:34:31;30.48;;;17.02;;
43248;SDS011;29216;51.248;6.808;2023-02-16T06:36:57;30.83;;;17.90;;
43248;SDS011;29216;51.248;6.808;2023-02-16T06:39:22;28.98;;;17.08;;
43248;SDS011;29216;51.248;6.808;2023-02-16T06:41:48;30.20;;;17.55;;
43248;SDS011;29216;51.248;6.808;2023-02-16T06:44:14;28.50;;;17.35;;
43248;SDS011;29216;51.248;6.808;2023-02-16T06:46:41;29.13;;;17.10;;
43248;SDS011;29216;51.248;6.808;2023-02-16T06:49:18;30.27;;;16.90;;
43248;SDS011;29216;51.248;6.808;2023-02-16T06:51:45;31.02;;;16.98;;
43248;SDS011;29216;51.248;6.808;2023-02-16T06:54:11;32.28;;;16.52;;
43248;SDS011;29216;51.248;6.808;2023-02-16T06:56:37;32.97;;;16.77;;
43248;SDS011;29216;51.248;6.808;2023-02-16T06:59:03;31.73;;;17.25;;
43248;SDS011;29216;51.248;6.808;2023-02-16T07:01:29;32.17;;;17.60;;
43248;SDS011;29216;51.248;6.808;2023-02-16T07:03:55;29.02;;;17.50;;
43248;SDS011;29216;51.248;6.808;2023-02-16T07:06:22;30.33;;;16.65;;
43248;SDS011;29216;51.248;6.808;2023-02-16T07:08:50;32.20;;;16.52;;
43248;SDS011;29216;51.248;6.808;2023-02-16T07:11:16;32.40;;;16.63;;
43248;SDS011;29216;51.248;6.808;2023-02-16T07:13:42;29.45;;;16.73;;
43248;SDS011;29216;51.248;6.808;2023-02-16T07:16:08;31.23;;;17.23;;
43248;SDS011;29216;51.248;6.808;2023-02-16T07:18:34;27.92;;;16.67;;
43248;SDS011;29216;51.248;6.808;2023-02-16T07:21:00;31.38;;;16.98;;
43248;SDS011;29216;51.248;6.808;2023-02-16T07:23:25;28.52;;;16.27;;
43248;SDS011;29216;51.248;6.808;2023-02-16T07:25:51;31.35;;;17.90;;
43248;SDS011;29216;51.248;6.808;2023-02-16T07:28:17;32.17;;;17.00;;
43248;SDS011;29216;51.248;6.808;2023-02-16T07:30:43;28.85;;;17.45;;
43248;SDS011;29216;51.248;6.808;2023-02-16T07:33:09;28.35;;;16.63;;
43248;SDS011;29216;51.248;6.808;2023-02-16T07:35:34;27.00;;;16.17;;
43248;SDS011;29216;51.248;6.808;2023-02-16T07:38:02;31.90;;;16.98;;
43248;SDS011;29216;51.248;6.808;2023-02-16T07:40:28;31.02;;;16.75;;
43248;SDS011;29216;51.248;6.808;2023-02-16T07:42:54;29.85;;;17.08;;
43248;SDS011;29216;51.248;6.808;2023-02-16T07:45:24;30.10;;;16.67;;
43248;SDS011;29216;51.248;6.808;2023-02-16T07:47:49;28.27;;;16.10;;
43248;SDS011;29216;51.248;6.808;2023-02-16T07:50:15;28.98;;;16.42;;
43248;SDS011;29216;51.248;6.808;2023-02-16T07:52:40;32.17;;;16.98;;
43248;SDS011;29216;51.248;6.808;2023-02-16T07:55:06;33.97;;;17.77;;
43248;SDS011;29216;51.248;6.808;2023-02-16T07:57:32;28.48;;;16.67;;
43248;SDS011;29216;51.248;6.808;2023-02-16T07:59:58;30.10;;;16.70;;
43248;SDS011;29216;51.248;6.808;2023-02-16T08:02:23;29.00;;;15.38;;
43248;SDS011;29216;51.248;6.808;2023-02-16T08:04:51;27.58;;;16.17;;
43248;SDS011;29216;51.248;6.808;2023-02-16T08:07:17;31.17;;;17.33;;
43248;SDS011;29216;51.248;6.808;2023-02-16T08:09:43;26.85;;;15.85;;
43248;SDS011;29216;51.248;6.808;2023-02-16T08:12:10;25.92;;;16.05;;
43248;SDS011;29216;51.248;6.808;2023-02-16T08:14:36;31.15;;;16.15;;
43248;SDS011;29216;51.248;6.808;2023-02-16T08:17:03;26.88;;;16.60;;
43248;SDS011;29216;51.248;6.808;2023-02-16T08:19:29;27.05;;;15.32;;
43248;SDS011;29216;51.248;6.808;2023-02-16T08:21:55;28.08;;;16.75;;
43248;SDS011;29216;51.248;6.808;2023-02-16T08:24:22;27.98;;;15.88;;
43248;SDS011;29216;51.248;6.808;2023-02-16T08:26:50;30.23;;;16.40;;
43248;SDS011;29216;51.248;6.808;2023-02-16T08:29:18;24.55;;;15.15;;
43248;SDS011;29216;51.248;6.808;2023-02-16T08:31:45;28.33;;;16.30;;
43248;SDS011;29216;51.248;6.808;2023-02-16T08:34:12;27.55;;;15.57;;
43248;SDS011;29216;51.248;6.808;2023-02-16T08:36:39;26.83;;;16.60;;
43248;SDS011;29216;51.248;6.808;2023-02-16T08:41:42;27.15;;;17.30;;
43248;SDS011;29216;51.248;6.808;2023-02-16T08:44:09;28.42;;;16.05;;
43248;SDS011;29216;51.248;6.808;2023-02-16T08:46:36;27.27;;;16.85;;
43248;SDS011;29216;51.248;6.808;2023-02-16T08:49:04;29.50;;;16.70;;
43248;SDS011;29216;51.248;6.808;2023-02-16T08:51:32;27.33;;;15.98;;
43248;SDS011;29216;51.248;6.808;2023-02-16T08:54:00;26.00;;;15.98;;
43248;SDS011;29216;51.248;6.808;2023-02-16T08:56:27;32.95;;;16.52;;
43248;SDS011;29216;51.248;6.808;2023-02-16T08:58:57;25.77;;;16.52;;
43248;SDS011;29216;51.248;6.808;2023-02-16T09:01:23;24.25;;;14.88;;
43248;SDS011;29216;51.248;6.808;2023-02-16T09:03:49;25.60;;;15.52;;
43248;SDS011;29216;51.248;6.808;2023-02-16T09:06:16;28.25;;;16.95;;
43248;SDS011;29216;51.248;6.808;2023-02-16T09:08:55;32.22;;;17.88;;
43248;SDS011;29216;51.248;6.808;2023-02-16T09:11:22;28.77;;;15.88;;
43248;SDS011;29216;51.248;6.808;2023-02-16T09:13:48;28.02;;;16.02;;
43248;SDS011;29216;51.248;6.808;2023-02-16T09:16:18;27.98;;;17.45;;
43248;SDS011;29216;51.248;6.808;2023-02-16T09:18:46;31.85;;;16.88;;
43248;SDS011;29216;51.248;6.808;2023-02-16T09:21:14;30.35;;;16.77;;
43248;SDS011;29216;51.248;6.808;2023-02-16T09:23:43;25.83;;;16.75;;
43248;SDS011;29216;51.248;6.808;2023-02-16T09:26:16;27.50;;;16.83;;
43248;SDS011;29216;51.248;6.808;2023-02-16T09:28:43;25.45;;;15.70;;
43248;SDS011;29216;51.248;6.808;2023-02-16T09:33:52;24.92;;;16.40;;
43248;SDS011;29216;51.248;6.808;2023-02-16T09:36:22;25.92;;;16.55;;
43248;SDS011;29216;51.248;6.808;2023-02-16T09:38:48;26.15;;;15.73;;
43248;SDS011;29216;51.248;6.808;2023-02-16T09:46:48;23.95;;;15.98;;
43248;SDS011;29216;51.248;6.808;2023-02-16T09:49:19;26.17;;;15.82;;
43248;SDS011;29216;51.248;6.808;2023-02-16T09:51:57;27.38;;;15.50;;
43248;SDS011;29216;51.248;6.808;2023-02-16T09:54:33;25.45;;;16.15;;
43248;SDS011;29216;51.248;6.808;2023-02-16T09:59:59;26.13;;;16.10;;
43248;SDS011;29216;51.248;6.808;2023-02-16T10:10:30;22.52;;;15.25;;
43248;SDS011;29216;51.248;6.808;2023-02-16T10:13:18;26.92;;;16.38;;
43248;SDS011;29216;51.248;6.808;2023-02-16T10:15:51;28.05;;;16.13;;
43248;SDS011;29216;51.248;6.808;2023-02-16T10:18:27;26.80;;;15.88;;
43248;SDS011;29216;51.248;6.808;2023-02-16T10:20:58;29.52;;;17.05;;
43248;SDS011;29216;51.248;6.808;2023-02-16T10:26:01;27.13;;;15.40;;
43248;SDS011;29216;51.248;6.808;2023-02-16T10:42:12;26.85;;;16.25;;
43248;SDS011;29216;51.248;6.808;2023-02-16T10:44:49;28.50;;;17.40;;
43248;SDS011;29216;51.248;6.808;2023-02-16T10:47:37;24.05;;;16.00;;
43248;SDS011;29216;51.248;6.808;2023-02-16T10:50:09;27.00;;;16.67;;
43248;SDS011;29216;51.248;6.808;2023-02-16T10:52:46;27.67;;;16.63;;
43248;SDS011;29216;51.248;6.808;2023-02-16T10:55:13;29.75;;;17.45;;
43248;SDS011;29216;51.248;6.808;2023-02-16T10:57:39;26.77;;;16.45;;
43248;SDS011;29216;51.248;6.808;2023-02-16T11:00:06;27.50;;;17.08;;
43248;SDS011;29216;51.248;6.808;2023-02-16T11:02:37;33.17;;;17.52;;
43248;SDS011;29216;51.248;6.808;2023-02-16T11:07:54;29.92;;;17.25;;
43248;SDS011;29216;51.248;6.808;2023-02-16T11:10:32;28.35;;;16.52;;
43248;SDS011;29216;51.248;6.808;2023-02-16T11:13:04;28.55;;;15.68;;
43248;SDS011;29216;51.248;6.808;2023-02-16T11:15:30;31.80;;;16.33;;
43248;SDS011;29216;51.248;6.808;2023-02-16T11:18:05;25.65;;;15.90;;
43248;SDS011;29216;51.248;6.808;2023-02-16T11:28:38;27.42;;;16.00;;
43248;SDS011;29216;51.248;6.808;2023-02-16T11:31:17;32.17;;;17.48;;
43248;SDS011;29216;51.248;6.808;2023-02-16T11:34:00;26.58;;;15.38;;
43248;SDS011;29216;51.248;6.808;2023-02-16T11:36:35;31.13;;;16.90;;
43248;SDS011;29216;51.248;6.808;2023-02-16T11:41:46;25.75;;;16.60;;
43248;SDS011;29216;51.248;6.808;2023-02-16T11:47:50;24.52;;;16.92;;
43248;SDS011;29216;51.248;6.808;2023-02-16T11:52:45;29.85;;;17.35;;
43248;SDS011;29216;51.248;6.808;2023-02-16T11:55:24;26.42;;;17.33;;
43248;SDS011;29216;51.248;6.808;2023-02-16T11:57:52;31.30;;;18.38;;
43248;SDS011;29216;51.248;6.808;2023-02-16T12:00:21;26.92;;;16.90;;
43248;SDS011;29216;51.248;6.808;2023-02-16T12:11:56;29.30;;;18.42;;
43248;SDS011;29216;51.248;6.808;2023-02-16T12:28:49;26.33;;;18.00;;
43248;SDS011;29216;51.248;6.808;2023-02-16T12:34:23;27.08;;;17.42;;
43248;SDS011;29216;51.248;6.808;2023-02-16T12:45:22;28.65;;;18.17;;
43248;SDS011;29216;51.248;6.808;2023-02-16T12:47:52;31.05;;;18.10;;
43248;SDS011;29216;51.248;6.808;2023-02-16T12:55:58;26.52;;;17.48;;
43248;SDS011;29216;51.248;6.808;2023-02-16T12:58:40;30.40;;;17.52;;
43248;SDS011;29216;51.248;6.808;2023-02-16T13:01:12;27.33;;;17.92;;
43248;SDS011;29216;51.248;6.808;2023-02-16T13:03:58;28.45;;;17.55;;
43248;SDS011;29216;51.248;6.808;2023-02-16T13:06:32;26.60;;;17.52;;
43248;SDS011;29216;51.248;6.808;2023-02-16T13:11:49;26.42;;;16.70;;
43248;SDS011;29216;51.248;6.808;2023-02-16T13:14:19;26.00;;;18.05;;
43248;SDS011;29216;51.248;6.808;2023-02-16T13:16:49;29.65;;;17.75;;
43248;SDS011;29216;51.248;6.808;2023-02-16T13:19:37;28.17;;;17.80;;
43248;SDS011;29216;51.248;6.808;2023-02-16T13:25:27;27.23;;;17.42;;
43248;SDS011;29216;51.248;6.808;2023-02-16T13:33:59;30.23;;;17.70;;
43248;SDS011;29216;51.248;6.808;2023-02-16T13:39:22;28.50;;;17.40;;
43248;SDS011;29216;51.248;6.808;2023-02-16T13:42:28;27.30;;;17.08;;
43248;SDS011;29216;51.248;6.808;2023-02-16T13:44:59;24.50;;;16.73;;
43248;SDS011;29216;51.248;6.808;2023-02-16T13:47:29;29.92;;;17.73;;
43248;SDS011;29216;51.248;6.808;2023-02-16T13:49:59;26.70;;;16.40;;
43248;SDS011;29216;51.248;6.808;2023-02-16T13:52:40;25.45;;;18.23;;
43248;SDS011;29216;51.248;6.808;2023-02-16T13:55:21;24.58;;;16.95;;
43248;SDS011;29216;51.248;6.808;2023-02-16T13:58:25;26.48;;;17.50;;
43248;SDS011;29216;51.248;6.808;2023-02-16T14:00:52;27.05;;;16.38;;
43248;SDS011;29216;51.248;6.808;2023-02-16T14:05:48;28.45;;;17.83;;
43248;SDS011;29216;51.248;6.808;2023-02-16T14:14:21;30.02;;;16.83;;
43248;SDS011;29216;51.248;6.808;2023-02-16T14:18:44;25.30;;;17.27;;
43248;SDS011;29216;51.248;6.808;2023-02-16T14:21:38;26.50;;;17.73;;
43248;SDS011;29216;51.248;6.808;2023-02-16T14:24:10;31.80;;;17.65;;
43248;SDS011;29216;51.248;6.808;2023-02-16T14:26:49;24.80;;;17.10;;
43248;SDS011;29216;51.248;6.808;2023-02-16T14:29:22;30.17;;;18.08;;
43248;SDS011;29216;51.248;6.808;2023-02-16T14:37:34;27.73;;;17.10;;
43248;SDS011;29216;51.248;6.808;2023-02-16T14:40:09;26.40;;;17.75;;
43248;SDS011;29216;51.248;6.808;2023-02-16T14:42:56;25.00;;;15.90;;
43248;SDS011;29216;51.248;6.808;2023-02-16T14:45:35;29.60;;;17.35;;
43248;SDS011;29216;51.248;6.808;2023-02-16T14:59:56;28.02;;;16.75;;
43248;SDS011;29216;51.248;6.808;2023-02-16T15:04:53;27.10;;;17.80;;
43248;SDS011;29216;51.248;6.808;2023-02-16T15:07:19;29.58;;;17.45;;
43248;SDS011;29216;51.248;6.808;2023-02-16T15:09:47;30.23;;;16.35;;
43248;SDS011;29216;51.248;6.808;2023-02-16T15:12:21;26.15;;;15.98;;
43248;SDS011;29216;51.248;6.808;2023-02-16T15:14:53;24.63;;;16.40;;
43248;SDS011;29216;51.248;6.808;2023-02-16T15:17:29;26.85;;;16.05;;
43248;SDS011;29216;51.248;6.808;2023-02-16T15:20:14;28.55;;;15.77;;
43248;SDS011;29216;51.248;6.808;2023-02-16T15:23:05;25.67;;;16.50;;
43248;SDS011;29216;51.248;6.808;2023-02-16T15:25:41;27.25;;;17.05;;
43248;SDS011;29216;51.248;6.808;2023-02-16T15:28:17;22.75;;;15.52;;
43248;SDS011;29216;51.248;6.808;2023-02-16T15:30:54;26.02;;;16.63;;
43248;SDS011;29216;51.248;6.808;2023-02-16T15:33:31;26.35;;;14.98;;
43248;SDS011;29216;51.248;6.808;2023-02-16T15:36:09;25.45;;;14.98;;
43248;SDS011;29216;51.248;6.808;2023-02-16T15:38:55;28.40;;;16.80;;
43248;SDS011;29216;51.248;6.808;2023-02-16T15:41:27;23.95;;;15.00;;
43248;SDS011;29216;51.248;6.808;2023-02-16T15:43:55;23.30;;;14.45;;
43248;SDS011;29216;51.248;6.808;2023-02-16T15:46:29;24.52;;;15.27;;
43248;SDS011;29216;51.248;6.808;2023-02-16T15:49:12;24.35;;;15.20;;
43248;SDS011;29216;51.248;6.808;2023-02-16T15:51:39;24.38;;;15.50;;
43248;SDS011;29216;51.248;6.808;2023-02-16T15:54:06;24.63;;;14.40;;
43248;SDS011;29216;51.248;6.808;2023-02-16T16:01:57;24.52;;;14.43;;
43248;SDS011;29216;51.248;6.808;2023-02-16T16:04:54;25.83;;;15.63;;
43248;SDS011;29216;51.248;6.808;2023-02-16T16:07:32;24.20;;;14.85;;
43248;SDS011;29216;51.248;6.808;2023-02-16T16:10:00;22.33;;;14.88;;
43248;SDS011;29216;51.248;6.808;2023-02-16T16:12:27;30.77;;;14.25;;
43248;SDS011;29216;51.248;6.808;2023-02-16T16:14:54;21.33;;;14.35;;
43248;SDS011;29216;51.248;6.808;2023-02-16T16:17:24;30.40;;;16.13;;
43248;SDS011;29216;51.248;6.808;2023-02-16T16:22:53;19.27;;;13.43;;
43248;SDS011;29216;51.248;6.808;2023-02-16T16:27:58;19.98;;;13.35;;
43248;SDS011;29216;51.248;6.808;2023-02-16T16:33:02;18.58;;;13.27;;
43248;SDS011;29216;51.248;6.808;2023-02-16T16:35:47;24.20;;;13.57;;
43248;SDS011;29216;51.248;6.808;2023-02-16T16:38:21;19.85;;;12.85;;
43248;SDS011;29216;51.248;6.808;2023-02-16T16:41:01;24.17;;;14.10;;
43248;SDS011;29216;51.248;6.808;2023-02-16T16:43:36;19.95;;;12.88;;
43248;SDS011;29216;51.248;6.808;2023-02-16T16:46:18;26.73;;;13.27;;
43248;SDS011;29216;51.248;6.808;2023-02-16T16:48:48;23.85;;;14.10;;
43248;SDS011;29216;51.248;6.808;2023-02-16T16:51:20;20.58;;;11.98;;
43248;SDS011;29216;51.248;6.808;2023-02-16T16:56:45;19.15;;;12.68;;
43248;SDS011;29216;51.248;6.808;2023-02-16T16:59:11;18.38;;;12.05;;
43248;SDS011;29216;51.248;6.808;2023-02-16T17:01:36;18.85;;;12.00;;
43248;SDS011;29216;51.248;6.808;2023-02-16T17:04:02;21.70;;;12.82;;
43248;SDS011;29216;51.248;6.808;2023-02-16T17:06:28;22.92;;;12.55;;
43248;SDS011;29216;51.248;6.808;2023-02-16T17:08:54;19.90;;;11.75;;
43248;SDS011;29216;51.248;6.808;2023-02-16T17:11:27;18.67;;;11.25;;
43248;SDS011;29216;51.248;6.808;2023-02-16T17:13:55;18.60;;;11.00;;
43248;SDS011;29216;51.248;6.808;2023-02-16T17:16:29;24.60;;;12.38;;
43248;SDS011;29216;51.248;6.808;2023-02-16T17:18:59;20.17;;;12.00;;
43248;SDS011;29216;51.248;6.808;2023-02-16T17:21:25;16.08;;;11.05;;
43248;SDS011;29216;51.248;6.808;2023-02-16T17:23:50;23.52;;;11.63;;
43248;SDS011;29216;51.248;6.808;2023-02-16T17:26:16;20.95;;;10.93;;
43248;SDS011;29216;51.248;6.808;2023-02-16T17:28:42;17.48;;;10.27;;
43248;SDS011;29216;51.248;6.808;2023-02-16T17:31:08;18.15;;;10.18;;
43248;SDS011;29216;51.248;6.808;2023-02-16T17:33:34;20.20;;;10.23;;
43248;SDS011;29216;51.248;6.808;2023-02-16T17:36:00;14.80;;;10.02;;
43248;SDS011;29216;51.248;6.808;2023-02-16T17:38:27;15.57;;;10.32;;
43248;SDS011;29216;51.248;6.808;2023-02-16T17:40:53;18.65;;;10.40;;
43248;SDS011;29216;51.248;6.808;2023-02-16T17:43:20;14.95;;;10.32;;
43248;SDS011;29216;51.248;6.808;2023-02-16T17:45:47;16.63;;;10.20;;
43248;SDS011;29216;51.248;6.808;2023-02-16T17:48:17;14.90;;;9.65;;
43248;SDS011;29216;51.248;6.808;2023-02-16T17:50:49;18.85;;;9.63;;
43248;SDS011;29216;51.248;6.808;2023-02-16T17:53:20;18.50;;;10.02;;
43248;SDS011;29216;51.248;6.808;2023-02-16T17:55:47;17.75;;;10.75;;
43248;SDS011;29216;51.248;6.808;2023-02-16T17:58:15;15.70;;;9.35;;
43248;SDS011;29216;51.248;6.808;2023-02-16T18:00:42;15.48;;;9.95;;
43248;SDS011;29216;51.248;6.808;2023-02-16T18:03:08;15.85;;;9.88;;